sensor_id;sensor_type;location;lat;lon;timestamp;temperature;humidity
2851;DHT22;1433;49.976;8.342;2022-07-23T00:02:18;21.30;99.90
2851;DHT22;1433;49.976;8.342;2022-07-23T00:04:44;21.30;99.90
2851;DHT22;1433;49.976;8.342;2022-07-23T00:07:10;21.30;99.90
2851;DHT22;1433;49.976;8.342;2022-07-23T00:09:36;21.50;99.90
2851;DHT22;1433;49.976;8.342;2022-07-23T00:12:03;21.60;99.90
2851;DHT22;1433;49.976;8.342;2022-07-23T00:14:29;21.70;99.90
2851;DHT22;1433;49.976;8.342;2022-07-23T00:16:55;21.70;99.90
2851;DHT22;1433;49.976;8.342;2022-07-23T00:19:21;21.70;99.90
2851;DHT22;1433;49.976;8.342;2022-07-23T00:21:47;21.70;99.90
2851;DHT22;1433;49.976;8.342;2022-07-23T00:24:13;21.60;99.90
2851;DHT22;1433;49.976;8.342;2022-07-23T00:26:40;21.60;99.90
2851;DHT22;1433;49.976;8.342;2022-07-23T00:29:06;21.50;99.90
2851;DHT22;1433;49.976;8.342;2022-07-23T00:31:32;21.50;99.90
2851;DHT22;1433;49.976;8.342;2022-07-23T00:33:58;21.40;99.90
2851;DHT22;1433;49.976;8.342;2022-07-23T00:36:27;21.30;99.90
2851;DHT22;1433;49.976;8.342;2022-07-23T00:38:53;21.20;99.90
2851;DHT22;1433;49.976;8.342;2022-07-23T00:41:20;21.20;99.90
2851;DHT22;1433;49.976;8.342;2022-07-23T00:43:46;21.20;99.90
2851;DHT22;1433;49.976;8.342;2022-07-23T00:46:12;21.10;99.90
2851;DHT22;1433;49.976;8.342;2022-07-23T00:48:39;21.10;99.90
2851;DHT22;1433;49.976;8.342;2022-07-23T00:51:05;21.10;99.90
2851;DHT22;1433;49.976;8.342;2022-07-23T00:53:31;21.10;99.90
2851;DHT22;1433;49.976;8.342;2022-07-23T00:55:58;21.10;99.90
2851;DHT22;1433;49.976;8.342;2022-07-23T00:58:24;21.10;99.90
2851;DHT22;1433;49.976;8.342;2022-07-23T01:00:50;21.20;99.90
2851;DHT22;1433;49.976;8.342;2022-07-23T01:03:16;21.30;99.90
2851;DHT22;1433;49.976;8.342;2022-07-23T01:05:43;21.40;99.90
2851;DHT22;1433;49.976;8.342;2022-07-23T01:08:10;21.50;99.90
2851;DHT22;1433;49.976;8.342;2022-07-23T01:10:36;21.50;99.90
2851;DHT22;1433;49.976;8.342;2022-07-23T01:13:08;21.50;99.90
2851;DHT22;1433;49.976;8.342;2022-07-23T01:15:37;21.50;99.90
2851;DHT22;1433;49.976;8.342;2022-07-23T01:18:04;21.20;99.90
2851;DHT22;1433;49.976;8.342;2022-07-23T01:20:32;20.50;99.90
2851;DHT22;1433;49.976;8.342;2022-07-23T01:22:59;19.90;99.90
2851;DHT22;1433;49.976;8.342;2022-07-23T01:25:26;19.70;99.90
2851;DHT22;1433;49.976;8.342;2022-07-23T01:27:57;19.60;99.90
2851;DHT22;1433;49.976;8.342;2022-07-23T01:30:26;19.60;99.90
2851;DHT22;1433;49.976;8.342;2022-07-23T01:32:55;19.70;99.90
2851;DHT22;1433;49.976;8.342;2022-07-23T01:35:21;19.80;99.90
2851;DHT22;1433;49.976;8.342;2022-07-23T01:37:48;19.80;99.90
2851;DHT22;1433;49.976;8.342;2022-07-23T01:40:15;19.80;99.90
2851;DHT22;1433;49.976;8.342;2022-07-23T01:42:41;19.80;99.90
2851;DHT22;1433;49.976;8.342;2022-07-23T01:45:09;19.80;99.90
2851;DHT22;1433;49.976;8.342;2022-07-23T01:47:37;19.90;99.90
2851;DHT22;1433;49.976;8.342;2022-07-23T01:50:04;19.90;99.90
2851;DHT22;1433;49.976;8.342;2022-07-23T01:52:50;19.90;99.90
2851;DHT22;1433;49.976;8.342;2022-07-23T01:55:16;19.90;99.90
2851;DHT22;1433;49.976;8.342;2022-07-23T01:57:43;19.90;99.90
2851;DHT22;1433;49.976;8.342;2022-07-23T02:00:11;19.90;99.90
2851;DHT22;1433;49.976;8.342;2022-07-23T02:02:41;20.00;99.90
2851;DHT22;1433;49.976;8.342;2022-07-23T02:05:08;20.00;99.90
2851;DHT22;1433;49.976;8.342;2022-07-23T02:07:34;19.90;99.90
2851;DHT22;1433;49.976;8.342;2022-07-23T02:10:01;19.90;99.90
2851;DHT22;1433;49.976;8.342;2022-07-23T02:12:27;19.90;99.90
2851;DHT22;1433;49.976;8.342;2022-07-23T02:14:53;20.00;99.90
2851;DHT22;1433;49.976;8.342;2022-07-23T02:17:19;20.00;99.90
2851;DHT22;1433;49.976;8.342;2022-07-23T02:19:45;20.00;99.90
2851;DHT22;1433;49.976;8.342;2022-07-23T02:22:11;20.00;99.90
2851;DHT22;1433;49.976;8.342;2022-07-23T02:24:37;20.00;99.90
2851;DHT22;1433;49.976;8.342;2022-07-23T02:27:03;20.10;99.90
2851;DHT22;1433;49.976;8.342;2022-07-23T02:29:31;20.10;99.90
2851;DHT22;1433;49.976;8.342;2022-07-23T02:31:58;20.20;99.90
2851;DHT22;1433;49.976;8.342;2022-07-23T02:34:24;20.20;99.90
2851;DHT22;1433;49.976;8.342;2022-07-23T02:36:50;20.20;99.90
2851;DHT22;1433;49.976;8.342;2022-07-23T02:39:16;20.20;99.90
2851;DHT22;1433;49.976;8.342;2022-07-23T02:41:43;20.10;99.90
2851;DHT22;1433;49.976;8.342;2022-07-23T02:44:09;20.10;99.90
2851;DHT22;1433;49.976;8.342;2022-07-23T02:46:35;20.00;99.90
2851;DHT22;1433;49.976;8.342;2022-07-23T02:49:02;20.00;99.90
2851;DHT22;1433;49.976;8.342;2022-07-23T02:51:30;19.90;99.90
2851;DHT22;1433;49.976;8.342;2022-07-23T02:53:58;19.90;99.90
2851;DHT22;1433;49.976;8.342;2022-07-23T02:56:24;19.90;99.90
2851;DHT22;1433;49.976;8.342;2022-07-23T02:58:50;19.90;99.90
2851;DHT22;1433;49.976;8.342;2022-07-23T03:01:18;19.90;99.90
2851;DHT22;1433;49.976;8.342;2022-07-23T03:03:45;19.80;99.90
2851;DHT22;1433;49.976;8.342;2022-07-23T03:06:11;19.80;99.90
2851;DHT22;1433;49.976;8.342;2022-07-23T03:08:38;19.80;99.90
2851;DHT22;1433;49.976;8.342;2022-07-23T03:11:04;19.70;99.90
2851;DHT22;1433;49.976;8.342;2022-07-23T03:13:32;19.80;99.90
2851;DHT22;1433;49.976;8.342;2022-07-23T03:15:58;19.70;99.90
2851;DHT22;1433;49.976;8.342;2022-07-23T03:18:24;19.70;99.90
2851;DHT22;1433;49.976;8.342;2022-07-23T03:20:50;19.60;99.90
2851;DHT22;1433;49.976;8.342;2022-07-23T03:23:17;19.60;99.90
2851;DHT22;1433;49.976;8.342;2022-07-23T03:25:43;19.50;99.90
2851;DHT22;1433;49.976;8.342;2022-07-23T03:28:10;19.50;99.90
2851;DHT22;1433;49.976;8.342;2022-07-23T03:30:36;19.50;99.90
2851;DHT22;1433;49.976;8.342;2022-07-23T03:33:02;19.60;99.90
2851;DHT22;1433;49.976;8.342;2022-07-23T03:35:29;19.60;99.90
2851;DHT22;1433;49.976;8.342;2022-07-23T03:37:57;19.60;99.90
2851;DHT22;1433;49.976;8.342;2022-07-23T03:40:25;19.60;99.90
2851;DHT22;1433;49.976;8.342;2022-07-23T03:42:51;19.60;99.90
2851;DHT22;1433;49.976;8.342;2022-07-23T03:45:17;19.60;99.90
2851;DHT22;1433;49.976;8.342;2022-07-23T03:47:43;19.60;99.90
2851;DHT22;1433;49.976;8.342;2022-07-23T03:50:10;19.60;99.90
2851;DHT22;1433;49.976;8.342;2022-07-23T03:52:36;19.60;99.90
2851;DHT22;1433;49.976;8.342;2022-07-23T03:55:03;19.60;99.90
2851;DHT22;1433;49.976;8.342;2022-07-23T03:57:29;19.60;99.90
2851;DHT22;1433;49.976;8.342;2022-07-23T03:59:56;19.60;99.90
2851;DHT22;1433;49.976;8.342;2022-07-23T04:02:22;19.60;99.90
2851;DHT22;1433;49.976;8.342;2022-07-23T04:04:49;19.50;99.90
2851;DHT22;1433;49.976;8.342;2022-07-23T04:07:16;19.50;99.90
2851;DHT22;1433;49.976;8.342;2022-07-23T04:09:44;19.60;99.90
2851;DHT22;1433;49.976;8.342;2022-07-23T04:12:10;19.50;99.90
2851;DHT22;1433;49.976;8.342;2022-07-23T04:14:36;19.50;99.90
2851;DHT22;1433;49.976;8.342;2022-07-23T04:17:02;19.50;99.90
2851;DHT22;1433;49.976;8.342;2022-07-23T04:19:28;19.50;99.90
2851;DHT22;1433;49.976;8.342;2022-07-23T04:21:58;19.50;99.90
2851;DHT22;1433;49.976;8.342;2022-07-23T04:24:24;19.60;99.90
2851;DHT22;1433;49.976;8.342;2022-07-23T04:26:50;19.70;99.90
2851;DHT22;1433;49.976;8.342;2022-07-23T04:29:16;19.90;99.90
2851;DHT22;1433;49.976;8.342;2022-07-23T04:31:42;19.90;99.90
2851;DHT22;1433;49.976;8.342;2022-07-23T04:34:09;20.00;99.90
2851;DHT22;1433;49.976;8.342;2022-07-23T04:36:35;19.90;99.90
2851;DHT22;1433;49.976;8.342;2022-07-23T04:39:01;19.90;99.90
2851;DHT22;1433;49.976;8.342;2022-07-23T04:41:27;20.00;99.90
2851;DHT22;1433;49.976;8.342;2022-07-23T04:43:54;20.10;99.90
2851;DHT22;1433;49.976;8.342;2022-07-23T04:46:20;20.10;99.90
2851;DHT22;1433;49.976;8.342;2022-07-23T04:48:48;20.10;99.90
2851;DHT22;1433;49.976;8.342;2022-07-23T04:51:14;20.20;99.90
2851;DHT22;1433;49.976;8.342;2022-07-23T04:53:40;20.20;99.90
2851;DHT22;1433;49.976;8.342;2022-07-23T04:56:07;20.20;99.90
2851;DHT22;1433;49.976;8.342;2022-07-23T04:58:33;20.20;99.90
2851;DHT22;1433;49.976;8.342;2022-07-23T05:00:59;20.20;99.90
2851;DHT22;1433;49.976;8.342;2022-07-23T05:03:26;20.20;99.90
2851;DHT22;1433;49.976;8.342;2022-07-23T05:05:53;20.10;99.90
2851;DHT22;1433;49.976;8.342;2022-07-23T05:08:21;20.20;99.90
2851;DHT22;1433;49.976;8.342;2022-07-23T05:10:49;20.20;99.90
2851;DHT22;1433;49.976;8.342;2022-07-23T05:13:15;20.10;99.90
2851;DHT22;1433;49.976;8.342;2022-07-23T05:15:44;20.10;99.90
2851;DHT22;1433;49.976;8.342;2022-07-23T05:18:11;20.10;99.90
2851;DHT22;1433;49.976;8.342;2022-07-23T05:20:37;20.10;99.90
2851;DHT22;1433;49.976;8.342;2022-07-23T05:23:03;20.10;99.90
2851;DHT22;1433;49.976;8.342;2022-07-23T05:25:30;20.10;99.90
2851;DHT22;1433;49.976;8.342;2022-07-23T05:27:56;20.10;99.90
2851;DHT22;1433;49.976;8.342;2022-07-23T05:30:22;20.10;99.90
2851;DHT22;1433;49.976;8.342;2022-07-23T05:32:50;20.10;99.90
2851;DHT22;1433;49.976;8.342;2022-07-23T05:35:17;20.00;99.90
2851;DHT22;1433;49.976;8.342;2022-07-23T05:37:45;20.00;99.90
2851;DHT22;1433;49.976;8.342;2022-07-23T05:40:11;20.10;99.90
2851;DHT22;1433;49.976;8.342;2022-07-23T05:42:39;20.00;99.90
2851;DHT22;1433;49.976;8.342;2022-07-23T05:45:06;19.90;99.90
2851;DHT22;1433;49.976;8.342;2022-07-23T05:47:43;19.90;99.90
2851;DHT22;1433;49.976;8.342;2022-07-23T05:50:11;19.80;99.90
2851;DHT22;1433;49.976;8.342;2022-07-23T05:52:40;19.80;99.90
2851;DHT22;1433;49.976;8.342;2022-07-23T05:55:12;19.80;99.90
2851;DHT22;1433;49.976;8.342;2022-07-23T05:57:40;19.90;99.90
2851;DHT22;1433;49.976;8.342;2022-07-23T06:00:08;20.00;99.90
2851;DHT22;1433;49.976;8.342;2022-07-23T06:02:38;20.00;99.90
2851;DHT22;1433;49.976;8.342;2022-07-23T06:05:05;20.00;99.90
2851;DHT22;1433;49.976;8.342;2022-07-23T06:07:34;20.00;99.90
2851;DHT22;1433;49.976;8.342;2022-07-23T06:10:00;20.00;99.90
2851;DHT22;1433;49.976;8.342;2022-07-23T06:12:26;20.00;99.90
2851;DHT22;1433;49.976;8.342;2022-07-23T06:14:53;20.10;99.90
2851;DHT22;1433;49.976;8.342;2022-07-23T06:17:20;20.20;99.90
2851;DHT22;1433;49.976;8.342;2022-07-23T06:19:46;20.20;99.90
2851;DHT22;1433;49.976;8.342;2022-07-23T06:22:12;20.30;99.90
2851;DHT22;1433;49.976;8.342;2022-07-23T06:24:39;20.40;99.90
2851;DHT22;1433;49.976;8.342;2022-07-23T06:27:05;20.50;99.90
2851;DHT22;1433;49.976;8.342;2022-07-23T06:29:31;20.50;99.90
2851;DHT22;1433;49.976;8.342;2022-07-23T06:31:57;20.60;99.90
2851;DHT22;1433;49.976;8.342;2022-07-23T06:34:23;20.70;99.90
2851;DHT22;1433;49.976;8.342;2022-07-23T06:36:49;20.80;99.90
2851;DHT22;1433;49.976;8.342;2022-07-23T06:39:15;20.80;99.90
2851;DHT22;1433;49.976;8.342;2022-07-23T06:41:43;21.00;99.90
2851;DHT22;1433;49.976;8.342;2022-07-23T06:44:09;21.10;99.90
2851;DHT22;1433;49.976;8.342;2022-07-23T06:46:36;21.30;99.90
2851;DHT22;1433;49.976;8.342;2022-07-23T06:49:02;21.40;99.90
2851;DHT22;1433;49.976;8.342;2022-07-23T06:51:30;21.50;99.90
2851;DHT22;1433;49.976;8.342;2022-07-23T06:53:56;21.60;99.90
2851;DHT22;1433;49.976;8.342;2022-07-23T06:56:23;21.70;99.90
2851;DHT22;1433;49.976;8.342;2022-07-23T06:58:49;21.80;99.90
2851;DHT22;1433;49.976;8.342;2022-07-23T07:01:15;21.80;99.90
2851;DHT22;1433;49.976;8.342;2022-07-23T07:03:41;21.90;99.90
2851;DHT22;1433;49.976;8.342;2022-07-23T07:06:08;22.00;99.90
2851;DHT22;1433;49.976;8.342;2022-07-23T07:08:34;22.10;99.90
2851;DHT22;1433;49.976;8.342;2022-07-23T07:11:00;22.10;99.90
2851;DHT22;1433;49.976;8.342;2022-07-23T07:13:26;22.20;99.90
2851;DHT22;1433;49.976;8.342;2022-07-23T07:15:53;22.30;99.90
2851;DHT22;1433;49.976;8.342;2022-07-23T07:18:19;22.40;99.90
2851;DHT22;1433;49.976;8.342;2022-07-23T07:20:45;22.40;99.90
2851;DHT22;1433;49.976;8.342;2022-07-23T07:23:12;22.50;99.90
2851;DHT22;1433;49.976;8.342;2022-07-23T07:25:38;22.50;99.90
2851;DHT22;1433;49.976;8.342;2022-07-23T07:28:04;22.40;99.90
2851;DHT22;1433;49.976;8.342;2022-07-23T07:30:30;22.50;99.90
2851;DHT22;1433;49.976;8.342;2022-07-23T07:32:56;22.60;99.90
2851;DHT22;1433;49.976;8.342;2022-07-23T07:35:23;22.60;99.90
2851;DHT22;1433;49.976;8.342;2022-07-23T07:37:49;22.70;99.90
2851;DHT22;1433;49.976;8.342;2022-07-23T07:40:15;22.80;99.90
2851;DHT22;1433;49.976;8.342;2022-07-23T07:42:50;22.70;99.90
2851;DHT22;1433;49.976;8.342;2022-07-23T07:45:17;22.60;99.90
2851;DHT22;1433;49.976;8.342;2022-07-23T07:47:45;22.60;99.90
2851;DHT22;1433;49.976;8.342;2022-07-23T07:50:11;22.50;99.90
2851;DHT22;1433;49.976;8.342;2022-07-23T07:52:38;22.50;99.90
2851;DHT22;1433;49.976;8.342;2022-07-23T07:55:07;22.60;99.90
2851;DHT22;1433;49.976;8.342;2022-07-23T07:57:34;22.70;99.90
2851;DHT22;1433;49.976;8.342;2022-07-23T08:00:00;22.70;99.90
2851;DHT22;1433;49.976;8.342;2022-07-23T08:02:27;22.70;99.90
2851;DHT22;1433;49.976;8.342;2022-07-23T08:04:53;22.80;99.90
2851;DHT22;1433;49.976;8.342;2022-07-23T08:07:19;22.80;99.90
2851;DHT22;1433;49.976;8.342;2022-07-23T08:09:45;22.90;99.90
2851;DHT22;1433;49.976;8.342;2022-07-23T08:12:12;23.10;99.90
2851;DHT22;1433;49.976;8.342;2022-07-23T08:14:38;23.30;99.90
2851;DHT22;1433;49.976;8.342;2022-07-23T08:17:04;23.40;99.90
2851;DHT22;1433;49.976;8.342;2022-07-23T08:19:30;23.40;99.90
2851;DHT22;1433;49.976;8.342;2022-07-23T08:21:56;23.30;99.90
2851;DHT22;1433;49.976;8.342;2022-07-23T08:24:22;23.30;99.90
2851;DHT22;1433;49.976;8.342;2022-07-23T08:26:48;23.40;99.90
2851;DHT22;1433;49.976;8.342;2022-07-23T08:29:14;23.40;99.90
2851;DHT22;1433;49.976;8.342;2022-07-23T08:31:40;23.20;99.90
2851;DHT22;1433;49.976;8.342;2022-07-23T08:34:06;23.20;99.90
2851;DHT22;1433;49.976;8.342;2022-07-23T08:36:32;23.30;99.90
2851;DHT22;1433;49.976;8.342;2022-07-23T08:38:59;23.40;99.90
2851;DHT22;1433;49.976;8.342;2022-07-23T08:41:25;23.60;99.90
2851;DHT22;1433;49.976;8.342;2022-07-23T08:43:51;23.80;99.90
2851;DHT22;1433;49.976;8.342;2022-07-23T08:46:19;24.00;99.90
2851;DHT22;1433;49.976;8.342;2022-07-23T08:48:48;24.00;99.90
2851;DHT22;1433;49.976;8.342;2022-07-23T08:51:14;24.00;99.90
2851;DHT22;1433;49.976;8.342;2022-07-23T08:53:41;24.20;99.90
2851;DHT22;1433;49.976;8.342;2022-07-23T08:56:08;23.90;99.90
2851;DHT22;1433;49.976;8.342;2022-07-23T08:58:34;23.90;99.90
2851;DHT22;1433;49.976;8.342;2022-07-23T09:01:01;24.00;99.90
2851;DHT22;1433;49.976;8.342;2022-07-23T09:03:33;24.30;99.90
2851;DHT22;1433;49.976;8.342;2022-07-23T09:06:00;24.30;99.90
2851;DHT22;1433;49.976;8.342;2022-07-23T09:08:43;24.40;99.90
2851;DHT22;1433;49.976;8.342;2022-07-23T09:11:12;24.50;99.90
2851;DHT22;1433;49.976;8.342;2022-07-23T09:13:52;24.50;99.90
2851;DHT22;1433;49.976;8.342;2022-07-23T09:16:30;24.70;99.90
2851;DHT22;1433;49.976;8.342;2022-07-23T09:19:00;24.60;99.90
2851;DHT22;1433;49.976;8.342;2022-07-23T09:21:30;24.60;99.90
2851;DHT22;1433;49.976;8.342;2022-07-23T09:24:05;24.50;99.90
2851;DHT22;1433;49.976;8.342;2022-07-23T09:26:45;24.50;99.90
2851;DHT22;1433;49.976;8.342;2022-07-23T09:29:22;24.80;99.90
2851;DHT22;1433;49.976;8.342;2022-07-23T09:31:54;25.20;99.90
2851;DHT22;1433;49.976;8.342;2022-07-23T09:34:26;25.10;99.90
2851;DHT22;1433;49.976;8.342;2022-07-23T09:36:55;25.00;99.90
2851;DHT22;1433;49.976;8.342;2022-07-23T09:41:54;25.20;99.90
2851;DHT22;1433;49.976;8.342;2022-07-23T09:44:21;25.50;99.90
2851;DHT22;1433;49.976;8.342;2022-07-23T09:46:49;25.70;99.90
2851;DHT22;1433;49.976;8.342;2022-07-23T09:49:22;25.70;99.90
2851;DHT22;1433;49.976;8.342;2022-07-23T09:51:54;26.20;99.90
2851;DHT22;1433;49.976;8.342;2022-07-23T09:54:33;26.50;99.90
2851;DHT22;1433;49.976;8.342;2022-07-23T09:57:11;26.80;99.90
2851;DHT22;1433;49.976;8.342;2022-07-23T09:59:40;27.00;99.90
2851;DHT22;1433;49.976;8.342;2022-07-23T10:02:09;27.10;99.90
2851;DHT22;1433;49.976;8.342;2022-07-23T10:04:37;27.20;99.90
2851;DHT22;1433;49.976;8.342;2022-07-23T10:07:19;26.80;99.90
2851;DHT22;1433;49.976;8.342;2022-07-23T10:10:06;26.40;99.90
2851;DHT22;1433;49.976;8.342;2022-07-23T10:12:45;26.40;99.90
2851;DHT22;1433;49.976;8.342;2022-07-23T10:15:18;26.90;99.90
2851;DHT22;1433;49.976;8.342;2022-07-23T10:17:45;27.30;99.90
2851;DHT22;1433;49.976;8.342;2022-07-23T10:20:11;27.60;99.90
2851;DHT22;1433;49.976;8.342;2022-07-23T10:23:00;27.90;99.90
2851;DHT22;1433;49.976;8.342;2022-07-23T10:25:17;28.30;99.90
2851;DHT22;1433;49.976;8.342;2022-07-23T10:30:39;28.50;99.90
2851;DHT22;1433;49.976;8.342;2022-07-23T10:36:11;27.60;99.90
2851;DHT22;1433;49.976;8.342;2022-07-23T10:38:54;27.70;99.90
2851;DHT22;1433;49.976;8.342;2022-07-23T10:41:37;27.70;99.90
2851;DHT22;1433;49.976;8.342;2022-07-23T10:44:15;27.80;99.90
2851;DHT22;1433;49.976;8.342;2022-07-23T10:49:30;28.50;99.90
2851;DHT22;1433;49.976;8.342;2022-07-23T10:54:42;33.10;99.90
2851;DHT22;1433;49.976;8.342;2022-07-23T10:57:11;33.50;99.90
2851;DHT22;1433;49.976;8.342;2022-07-23T11:02:42;30.10;99.90
2851;DHT22;1433;49.976;8.342;2022-07-23T11:05:11;29.00;99.90
2851;DHT22;1433;49.976;8.342;2022-07-23T11:10:36;29.10;99.90
2851;DHT22;1433;49.976;8.342;2022-07-23T11:16:06;31.00;99.90
2851;DHT22;1433;49.976;8.342;2022-07-23T11:34:47;34.30;99.90
2851;DHT22;1433;49.976;8.342;2022-07-23T11:37:37;35.20;99.90
2851;DHT22;1433;49.976;8.342;2022-07-23T11:40:10;35.40;99.90
2851;DHT22;1433;49.976;8.342;2022-07-23T11:42:53;35.90;99.90
2851;DHT22;1433;49.976;8.342;2022-07-23T11:45:20;36.80;99.90
2851;DHT22;1433;49.976;8.342;2022-07-23T11:47:46;37.30;99.90
2851;DHT22;1433;49.976;8.342;2022-07-23T11:50:12;36.90;99.90
2851;DHT22;1433;49.976;8.342;2022-07-23T11:52:39;36.90;99.90
2851;DHT22;1433;49.976;8.342;2022-07-23T11:55:08;36.90;99.90
2851;DHT22;1433;49.976;8.342;2022-07-23T11:57:37;36.40;99.90
2851;DHT22;1433;49.976;8.342;2022-07-23T12:00:07;37.10;99.90
2851;DHT22;1433;49.976;8.342;2022-07-23T12:02:45;37.20;99.90
2851;DHT22;1433;49.976;8.342;2022-07-23T12:05:14;37.10;99.90
2851;DHT22;1433;49.976;8.342;2022-07-23T12:07:43;37.40;99.90
2851;DHT22;1433;49.976;8.342;2022-07-23T12:10:19;35.80;99.90
2851;DHT22;1433;49.976;8.342;2022-07-23T12:12:51;33.50;99.90
2851;DHT22;1433;49.976;8.342;2022-07-23T12:15:21;31.90;99.90
2851;DHT22;1433;49.976;8.342;2022-07-23T12:17:49;32.00;99.90
2851;DHT22;1433;49.976;8.342;2022-07-23T12:20:20;32.40;99.90
2851;DHT22;1433;49.976;8.342;2022-07-23T12:22:48;33.60;99.90
2851;DHT22;1433;49.976;8.342;2022-07-23T12:25:23;35.60;99.90
2851;DHT22;1433;49.976;8.342;2022-07-23T12:30:37;36.70;99.90
2851;DHT22;1433;49.976;8.342;2022-07-23T12:33:03;37.50;99.90
2851;DHT22;1433;49.976;8.342;2022-07-23T12:35:33;38.60;99.90
2851;DHT22;1433;49.976;8.342;2022-07-23T12:38:02;39.30;99.90
2851;DHT22;1433;49.976;8.342;2022-07-23T12:43:23;37.50;99.90
2851;DHT22;1433;49.976;8.342;2022-07-23T12:45:53;35.80;99.90
2851;DHT22;1433;49.976;8.342;2022-07-23T12:48:37;33.00;99.90
2851;DHT22;1433;49.976;8.342;2022-07-23T12:51:06;31.70;99.90
2851;DHT22;1433;49.976;8.342;2022-07-23T12:53:44;31.00;99.90
2851;DHT22;1433;49.976;8.342;2022-07-23T12:56:26;30.80;99.90
2851;DHT22;1433;49.976;8.342;2022-07-23T13:01:25;31.90;99.90
2851;DHT22;1433;49.976;8.342;2022-07-23T13:06:45;31.20;99.90
2851;DHT22;1433;49.976;8.342;2022-07-23T13:09:14;31.40;99.90
2851;DHT22;1433;49.976;8.342;2022-07-23T13:11:41;31.80;99.90
2851;DHT22;1433;49.976;8.342;2022-07-23T13:14:07;32.00;99.90
2851;DHT22;1433;49.976;8.342;2022-07-23T13:16:33;32.20;99.90
2851;DHT22;1433;49.976;8.342;2022-07-23T13:19:00;32.20;99.90
2851;DHT22;1433;49.976;8.342;2022-07-23T13:21:28;32.40;99.90
2851;DHT22;1433;49.976;8.342;2022-07-23T13:23:55;32.60;99.90
2851;DHT22;1433;49.976;8.342;2022-07-23T13:26:21;32.90;99.90
2851;DHT22;1433;49.976;8.342;2022-07-23T13:28:47;33.60;99.90
2851;DHT22;1433;49.976;8.342;2022-07-23T13:31:14;35.30;99.90
2851;DHT22;1433;49.976;8.342;2022-07-23T13:33:40;36.80;99.90
2851;DHT22;1433;49.976;8.342;2022-07-23T13:36:07;38.10;99.90
2851;DHT22;1433;49.976;8.342;2022-07-23T13:38:33;38.90;99.90
2851;DHT22;1433;49.976;8.342;2022-07-23T13:40:59;38.10;99.90
2851;DHT22;1433;49.976;8.342;2022-07-23T13:43:25;36.20;99.90
2851;DHT22;1433;49.976;8.342;2022-07-23T13:45:52;32.40;99.90
2851;DHT22;1433;49.976;8.342;2022-07-23T13:48:19;32.10;99.90
2851;DHT22;1433;49.976;8.342;2022-07-23T13:50:46;31.80;99.90
2851;DHT22;1433;49.976;8.342;2022-07-23T13:53:16;33.70;99.90
2851;DHT22;1433;49.976;8.342;2022-07-23T13:55:43;35.40;99.90
2851;DHT22;1433;49.976;8.342;2022-07-23T13:58:10;35.80;99.90
2851;DHT22;1433;49.976;8.342;2022-07-23T14:00:39;35.70;99.90
2851;DHT22;1433;49.976;8.342;2022-07-23T14:03:06;33.90;99.90
2851;DHT22;1433;49.976;8.342;2022-07-23T14:05:32;32.40;99.90
2851;DHT22;1433;49.976;8.342;2022-07-23T14:07:59;31.50;99.90
2851;DHT22;1433;49.976;8.342;2022-07-23T14:10:25;31.60;99.90
2851;DHT22;1433;49.976;8.342;2022-07-23T14:12:52;30.70;99.90
2851;DHT22;1433;49.976;8.342;2022-07-23T14:15:19;30.50;99.90
2851;DHT22;1433;49.976;8.342;2022-07-23T14:17:45;31.10;99.90
2851;DHT22;1433;49.976;8.342;2022-07-23T14:20:13;32.00;99.90
2851;DHT22;1433;49.976;8.342;2022-07-23T14:22:40;33.10;99.90
2851;DHT22;1433;49.976;8.342;2022-07-23T14:25:08;34.10;99.90
2851;DHT22;1433;49.976;8.342;2022-07-23T14:27:34;33.30;99.90
2851;DHT22;1433;49.976;8.342;2022-07-23T14:30:06;32.70;99.90
2851;DHT22;1433;49.976;8.342;2022-07-23T14:32:33;33.00;99.90
2851;DHT22;1433;49.976;8.342;2022-07-23T14:34:59;33.40;99.90
2851;DHT22;1433;49.976;8.342;2022-07-23T14:37:25;32.80;99.90
2851;DHT22;1433;49.976;8.342;2022-07-23T14:39:52;33.10;99.90
2851;DHT22;1433;49.976;8.342;2022-07-23T14:42:18;34.40;99.90
2851;DHT22;1433;49.976;8.342;2022-07-23T14:44:45;35.80;99.90
2851;DHT22;1433;49.976;8.342;2022-07-23T14:47:11;36.30;99.90
2851;DHT22;1433;49.976;8.342;2022-07-23T14:49:38;35.30;99.90
2851;DHT22;1433;49.976;8.342;2022-07-23T14:52:05;34.40;99.90
2851;DHT22;1433;49.976;8.342;2022-07-23T14:54:32;32.10;99.90
2851;DHT22;1433;49.976;8.342;2022-07-23T14:56:59;31.20;99.90
2851;DHT22;1433;49.976;8.342;2022-07-23T14:59:26;32.00;99.90
2851;DHT22;1433;49.976;8.342;2022-07-23T15:01:53;31.90;99.90
2851;DHT22;1433;49.976;8.342;2022-07-23T15:04:20;31.90;99.90
2851;DHT22;1433;49.976;8.342;2022-07-23T15:06:46;32.80;99.90
2851;DHT22;1433;49.976;8.342;2022-07-23T15:09:13;33.30;99.90
2851;DHT22;1433;49.976;8.342;2022-07-23T15:11:40;33.20;99.90
2851;DHT22;1433;49.976;8.342;2022-07-23T15:14:07;33.00;99.90
2851;DHT22;1433;49.976;8.342;2022-07-23T15:16:35;32.50;99.90
2851;DHT22;1433;49.976;8.342;2022-07-23T15:19:03;32.80;99.90
2851;DHT22;1433;49.976;8.342;2022-07-23T15:21:30;33.60;99.90
2851;DHT22;1433;49.976;8.342;2022-07-23T15:23:57;33.50;99.90
2851;DHT22;1433;49.976;8.342;2022-07-23T15:26:28;33.70;99.90
2851;DHT22;1433;49.976;8.342;2022-07-23T15:28:55;34.50;99.90
2851;DHT22;1433;49.976;8.342;2022-07-23T15:31:21;35.30;99.90
2851;DHT22;1433;49.976;8.342;2022-07-23T15:33:48;36.00;99.90
2851;DHT22;1433;49.976;8.342;2022-07-23T15:36:17;36.80;99.90
2851;DHT22;1433;49.976;8.342;2022-07-23T15:38:43;37.20;99.90
2851;DHT22;1433;49.976;8.342;2022-07-23T15:41:09;37.80;99.90
2851;DHT22;1433;49.976;8.342;2022-07-23T15:43:36;38.30;99.90
2851;DHT22;1433;49.976;8.342;2022-07-23T15:46:04;38.50;99.90
2851;DHT22;1433;49.976;8.342;2022-07-23T15:48:30;37.40;99.90
2851;DHT22;1433;49.976;8.342;2022-07-23T15:50:57;38.10;99.90
2851;DHT22;1433;49.976;8.342;2022-07-23T15:53:23;36.30;99.90
2851;DHT22;1433;49.976;8.342;2022-07-23T15:55:49;35.10;99.90
2851;DHT22;1433;49.976;8.342;2022-07-23T15:58:15;34.00;99.90
2851;DHT22;1433;49.976;8.342;2022-07-23T16:00:41;34.00;99.90
2851;DHT22;1433;49.976;8.342;2022-07-23T16:03:07;32.80;99.90
2851;DHT22;1433;49.976;8.342;2022-07-23T16:05:33;33.60;99.90
2851;DHT22;1433;49.976;8.342;2022-07-23T16:08:02;33.70;99.90
2851;DHT22;1433;49.976;8.342;2022-07-23T16:10:28;33.80;99.90
2851;DHT22;1433;49.976;8.342;2022-07-23T16:12:55;34.10;99.90
2851;DHT22;1433;49.976;8.342;2022-07-23T16:15:21;35.00;99.90
2851;DHT22;1433;49.976;8.342;2022-07-23T16:17:47;35.40;99.90
2851;DHT22;1433;49.976;8.342;2022-07-23T16:20:14;36.00;99.90
2851;DHT22;1433;49.976;8.342;2022-07-23T16:22:40;36.20;99.90
2851;DHT22;1433;49.976;8.342;2022-07-23T16:25:07;35.10;99.90
2851;DHT22;1433;49.976;8.342;2022-07-23T16:27:36;33.90;99.90
2851;DHT22;1433;49.976;8.342;2022-07-23T16:30:04;33.90;99.90
2851;DHT22;1433;49.976;8.342;2022-07-23T16:32:31;34.00;99.90
2851;DHT22;1433;49.976;8.342;2022-07-23T16:34:57;34.40;99.90
2851;DHT22;1433;49.976;8.342;2022-07-23T16:37:23;34.10;99.90
2851;DHT22;1433;49.976;8.342;2022-07-23T16:39:50;33.50;99.90
2851;DHT22;1433;49.976;8.342;2022-07-23T16:42:16;32.80;99.90
2851;DHT22;1433;49.976;8.342;2022-07-23T16:44:42;32.60;99.90
2851;DHT22;1433;49.976;8.342;2022-07-23T16:47:09;33.00;99.90
2851;DHT22;1433;49.976;8.342;2022-07-23T16:49:35;32.90;99.90
2851;DHT22;1433;49.976;8.342;2022-07-23T16:52:03;32.80;99.90
2851;DHT22;1433;49.976;8.342;2022-07-23T16:54:30;33.20;99.90
2851;DHT22;1433;49.976;8.342;2022-07-23T16:56:57;33.60;99.90